sensor_id;sensor_type;location;lat;lon;timestamp;P1;durP1;ratioP1;P2;durP2;ratioP2
81821;SDS011;71257;52.192;5.654;2023-07-31T00:02:21;4.03;;;1.67;;
81821;SDS011;71257;52.192;5.654;2023-07-31T00:04:47;3.50;;;1.93;;
81821;SDS011;71257;52.192;5.654;2023-07-31T00:07:13;2.60;;;1.70;;
81821;SDS011;71257;52.192;5.654;2023-07-31T00:09:39;3.08;;;1.92;;
81821;SDS011;71257;52.192;5.654;2023-07-31T00:12:04;3.70;;;1.70;;
81821;SDS011;71257;52.192;5.654;2023-07-31T00:14:30;4.03;;;2.05;;
81821;SDS011;71257;52.192;5.654;2023-07-31T00:16:55;3.50;;;2.07;;
81821;SDS011;71257;52.192;5.654;2023-07-31T00:19:21;4.07;;;1.88;;
81821;SDS011;71257;52.192;5.654;2023-07-31T00:21:46;4.20;;;1.90;;
81821;SDS011;71257;52.192;5.654;2023-07-31T00:24:12;3.33;;;2.00;;
81821;SDS011;71257;52.192;5.654;2023-07-31T00:26:37;4.07;;;2.10;;
81821;SDS011;71257;52.192;5.654;2023-07-31T00:29:02;4.77;;;2.23;;
81821;SDS011;71257;52.192;5.654;2023-07-31T00:31:28;4.00;;;2.40;;
81821;SDS011;71257;52.192;5.654;2023-07-31T00:33:53;3.95;;;2.17;;
81821;SDS011;71257;52.192;5.654;2023-07-31T00:36:18;3.87;;;2.07;;
81821;SDS011;71257;52.192;5.654;2023-07-31T00:38:44;4.30;;;2.28;;
81821;SDS011;71257;52.192;5.654;2023-07-31T00:41:09;5.20;;;1.90;;
81821;SDS011;71257;52.192;5.654;2023-07-31T00:43:35;3.92;;;1.60;;
81821;SDS011;71257;52.192;5.654;2023-07-31T00:46:00;4.70;;;1.90;;
81821;SDS011;71257;52.192;5.654;2023-07-31T00:48:26;4.18;;;2.47;;
81821;SDS011;71257;52.192;5.654;2023-07-31T00:50:51;5.38;;;2.55;;
81821;SDS011;71257;52.192;5.654;2023-07-31T00:53:17;3.63;;;1.95;;
81821;SDS011;71257;52.192;5.654;2023-07-31T00:55:43;5.20;;;2.20;;
81821;SDS011;71257;52.192;5.654;2023-07-31T00:58:09;3.72;;;2.35;;
81821;SDS011;71257;52.192;5.654;2023-07-31T01:00:34;3.67;;;2.33;;
81821;SDS011;71257;52.192;5.654;2023-07-31T01:02:59;4.13;;;2.33;;
81821;SDS011;71257;52.192;5.654;2023-07-31T01:05:29;6.18;;;3.03;;
81821;SDS011;71257;52.192;5.654;2023-07-31T01:08:08;9.23;;;4.07;;
81821;SDS011;71257;52.192;5.654;2023-07-31T01:10:44;7.18;;;3.20;;
81821;SDS011;71257;52.192;5.654;2023-07-31T01:13:14;6.70;;;3.20;;
81821;SDS011;71257;52.192;5.654;2023-07-31T01:15:40;7.90;;;3.83;;
81821;SDS011;71257;52.192;5.654;2023-07-31T01:18:05;9.82;;;4.22;;
81821;SDS011;71257;52.192;5.654;2023-07-31T01:20:31;10.98;;;4.30;;
81821;SDS011;71257;52.192;5.654;2023-07-31T01:23:35;9.77;;;3.70;;
81821;SDS011;71257;52.192;5.654;2023-07-31T01:26:10;12.85;;;3.83;;
81821;SDS011;71257;52.192;5.654;2023-07-31T01:31:16;7.85;;;3.47;;
81821;SDS011;71257;52.192;5.654;2023-07-31T01:33:48;8.35;;;3.85;;
81821;SDS011;71257;52.192;5.654;2023-07-31T01:36:15;8.95;;;3.35;;
81821;SDS011;71257;52.192;5.654;2023-07-31T01:38:40;7.45;;;3.25;;
81821;SDS011;71257;52.192;5.654;2023-07-31T01:41:06;5.70;;;2.70;;
81821;SDS011;71257;52.192;5.654;2023-07-31T01:43:31;5.03;;;2.50;;
81821;SDS011;71257;52.192;5.654;2023-07-31T01:45:56;5.23;;;2.77;;
81821;SDS011;71257;52.192;5.654;2023-07-31T01:48:22;5.70;;;3.00;;
81821;SDS011;71257;52.192;5.654;2023-07-31T01:50:47;7.68;;;2.80;;
81821;SDS011;71257;52.192;5.654;2023-07-31T01:53:12;5.23;;;2.73;;
81821;SDS011;71257;52.192;5.654;2023-07-31T01:55:38;4.82;;;2.83;;
81821;SDS011;71257;52.192;5.654;2023-07-31T01:58:03;6.45;;;2.30;;
81821;SDS011;71257;52.192;5.654;2023-07-31T02:00:29;5.30;;;2.65;;
81821;SDS011;71257;52.192;5.654;2023-07-31T02:02:54;5.47;;;2.33;;
81821;SDS011;71257;52.192;5.654;2023-07-31T02:05:20;4.00;;;2.28;;
81821;SDS011;71257;52.192;5.654;2023-07-31T02:07:45;4.55;;;1.95;;
81821;SDS011;71257;52.192;5.654;2023-07-31T02:10:11;3.50;;;1.90;;
81821;SDS011;71257;52.192;5.654;2023-07-31T02:12:36;4.95;;;2.50;;
81821;SDS011;71257;52.192;5.654;2023-07-31T02:15:01;6.25;;;2.20;;
81821;SDS011;71257;52.192;5.654;2023-07-31T02:17:27;5.50;;;2.55;;
81821;SDS011;71257;52.192;5.654;2023-07-31T02:19:52;8.82;;;3.10;;
81821;SDS011;71257;52.192;5.654;2023-07-31T02:22:18;5.80;;;2.55;;
81821;SDS011;71257;52.192;5.654;2023-07-31T02:24:44;8.35;;;3.33;;
81821;SDS011;71257;52.192;5.654;2023-07-31T02:27:09;10.27;;;3.67;;
81821;SDS011;71257;52.192;5.654;2023-07-31T02:29:34;8.17;;;4.10;;
81821;SDS011;71257;52.192;5.654;2023-07-31T02:32:00;14.97;;;4.80;;
81821;SDS011;71257;52.192;5.654;2023-07-31T02:34:25;11.17;;;4.40;;
81821;SDS011;71257;52.192;5.654;2023-07-31T02:36:50;12.30;;;4.40;;
81821;SDS011;71257;52.192;5.654;2023-07-31T02:39:16;12.30;;;4.50;;
81821;SDS011;71257;52.192;5.654;2023-07-31T02:41:41;12.53;;;4.77;;
81821;SDS011;71257;52.192;5.654;2023-07-31T02:44:06;15.50;;;4.27;;
81821;SDS011;71257;52.192;5.654;2023-07-31T02:46:32;13.90;;;4.93;;
81821;SDS011;71257;52.192;5.654;2023-07-31T02:48:57;12.73;;;5.73;;
81821;SDS011;71257;52.192;5.654;2023-07-31T02:51:22;15.63;;;6.18;;
81821;SDS011;71257;52.192;5.654;2023-07-31T02:53:48;13.90;;;4.22;;
81821;SDS011;71257;52.192;5.654;2023-07-31T02:56:14;13.73;;;5.80;;
81821;SDS011;71257;52.192;5.654;2023-07-31T02:58:40;12.52;;;4.80;;
81821;SDS011;71257;52.192;5.654;2023-07-31T03:01:05;15.27;;;5.87;;
81821;SDS011;71257;52.192;5.654;2023-07-31T03:03:30;11.90;;;4.80;;
81821;SDS011;71257;52.192;5.654;2023-07-31T03:05:56;12.15;;;3.83;;
81821;SDS011;71257;52.192;5.654;2023-07-31T03:08:21;11.37;;;4.47;;
81821;SDS011;71257;52.192;5.654;2023-07-31T03:10:46;12.10;;;4.18;;
81821;SDS011;71257;52.192;5.654;2023-07-31T03:13:12;9.18;;;4.18;;
81821;SDS011;71257;52.192;5.654;2023-07-31T03:15:37;12.47;;;5.40;;
81821;SDS011;71257;52.192;5.654;2023-07-31T03:18:02;14.47;;;4.73;;
81821;SDS011;71257;52.192;5.654;2023-07-31T03:20:28;18.70;;;6.63;;
81821;SDS011;71257;52.192;5.654;2023-07-31T03:22:53;14.23;;;4.97;;
81821;SDS011;71257;52.192;5.654;2023-07-31T03:25:18;16.87;;;4.93;;
81821;SDS011;71257;52.192;5.654;2023-07-31T03:27:44;10.47;;;4.93;;
81821;SDS011;71257;52.192;5.654;2023-07-31T03:30:09;13.07;;;5.13;;
81821;SDS011;71257;52.192;5.654;2023-07-31T03:32:35;14.80;;;5.93;;
81821;SDS011;71257;52.192;5.654;2023-07-31T03:35:00;12.93;;;5.57;;
81821;SDS011;71257;52.192;5.654;2023-07-31T03:37:25;16.42;;;5.50;;
81821;SDS011;71257;52.192;5.654;2023-07-31T03:39:51;13.00;;;5.10;;
81821;SDS011;71257;52.192;5.654;2023-07-31T03:42:16;16.87;;;5.63;;
81821;SDS011;71257;52.192;5.654;2023-07-31T03:44:42;13.93;;;6.23;;
81821;SDS011;71257;52.192;5.654;2023-07-31T03:47:07;15.40;;;7.70;;
81821;SDS011;71257;52.192;5.654;2023-07-31T03:49:32;15.18;;;5.82;;
81821;SDS011;71257;52.192;5.654;2023-07-31T03:51:58;19.17;;;6.63;;
81821;SDS011;71257;52.192;5.654;2023-07-31T03:54:23;20.13;;;5.82;;
81821;SDS011;71257;52.192;5.654;2023-07-31T03:56:49;20.17;;;6.32;;
81821;SDS011;71257;52.192;5.654;2023-07-31T03:59:14;12.85;;;5.10;;
81821;SDS011;71257;52.192;5.654;2023-07-31T04:01:40;19.00;;;5.95;;
81821;SDS011;71257;52.192;5.654;2023-07-31T04:04:05;19.43;;;6.03;;
81821;SDS011;71257;52.192;5.654;2023-07-31T04:06:30;14.77;;;6.07;;
81821;SDS011;71257;52.192;5.654;2023-07-31T04:08:56;16.50;;;5.43;;
81821;SDS011;71257;52.192;5.654;2023-07-31T04:11:21;18.48;;;6.07;;
81821;SDS011;71257;52.192;5.654;2023-07-31T04:13:47;15.32;;;5.43;;
81821;SDS011;71257;52.192;5.654;2023-07-31T04:16:12;12.98;;;5.53;;
81821;SDS011;71257;52.192;5.654;2023-07-31T04:18:37;23.00;;;7.00;;
81821;SDS011;71257;52.192;5.654;2023-07-31T04:21:03;17.38;;;6.40;;
81821;SDS011;71257;52.192;5.654;2023-07-31T04:23:28;15.80;;;5.37;;
81821;SDS011;71257;52.192;5.654;2023-07-31T04:25:54;18.13;;;5.70;;
81821;SDS011;71257;52.192;5.654;2023-07-31T04:28:19;10.82;;;4.97;;
81821;SDS011;71257;52.192;5.654;2023-07-31T04:30:44;13.82;;;6.00;;
81821;SDS011;71257;52.192;5.654;2023-07-31T04:33:10;17.30;;;5.20;;
81821;SDS011;71257;52.192;5.654;2023-07-31T04:35:35;18.95;;;6.57;;
81821;SDS011;71257;52.192;5.654;2023-07-31T04:38:01;16.80;;;6.53;;
81821;SDS011;71257;52.192;5.654;2023-07-31T04:40:26;11.90;;;4.63;;
81821;SDS011;71257;52.192;5.654;2023-07-31T04:42:51;20.60;;;6.35;;
81821;SDS011;71257;52.192;5.654;2023-07-31T04:45:17;20.50;;;6.27;;
81821;SDS011;71257;52.192;5.654;2023-07-31T04:47:42;14.07;;;5.60;;
81821;SDS011;71257;52.192;5.654;2023-07-31T04:50:08;23.33;;;6.85;;
81821;SDS011;71257;52.192;5.654;2023-07-31T04:52:33;11.52;;;5.57;;
81821;SDS011;71257;52.192;5.654;2023-07-31T04:54:59;16.10;;;4.80;;
81821;SDS011;71257;52.192;5.654;2023-07-31T04:57:24;15.07;;;6.57;;
81821;SDS011;71257;52.192;5.654;2023-07-31T04:59:49;13.70;;;5.53;;
81821;SDS011;71257;52.192;5.654;2023-07-31T05:02:15;19.57;;;7.23;;
81821;SDS011;71257;52.192;5.654;2023-07-31T05:04:40;15.95;;;5.65;;
81821;SDS011;71257;52.192;5.654;2023-07-31T05:07:06;14.40;;;5.72;;
81821;SDS011;71257;52.192;5.654;2023-07-31T05:09:31;12.13;;;5.50;;
81821;SDS011;71257;52.192;5.654;2023-07-31T05:11:56;18.88;;;6.05;;
81821;SDS011;71257;52.192;5.654;2023-07-31T05:14:22;19.30;;;6.22;;
81821;SDS011;71257;52.192;5.654;2023-07-31T05:16:47;16.25;;;6.30;;
81821;SDS011;71257;52.192;5.654;2023-07-31T05:19:13;15.50;;;6.43;;
81821;SDS011;71257;52.192;5.654;2023-07-31T05:21:38;15.67;;;5.67;;
81821;SDS011;71257;52.192;5.654;2023-07-31T05:24:04;16.25;;;6.53;;
81821;SDS011;71257;52.192;5.654;2023-07-31T05:26:30;15.70;;;6.28;;
81821;SDS011;71257;52.192;5.654;2023-07-31T05:28:55;19.45;;;6.22;;
81821;SDS011;71257;52.192;5.654;2023-07-31T05:31:21;13.80;;;5.95;;
81821;SDS011;71257;52.192;5.654;2023-07-31T05:33:47;19.17;;;5.45;;
81821;SDS011;71257;52.192;5.654;2023-07-31T05:36:14;22.13;;;6.20;;
81821;SDS011;71257;52.192;5.654;2023-07-31T05:38:40;15.75;;;5.90;;
81821;SDS011;71257;52.192;5.654;2023-07-31T05:41:05;15.13;;;4.88;;
81821;SDS011;71257;52.192;5.654;2023-07-31T05:43:31;18.23;;;5.93;;
81821;SDS011;71257;52.192;5.654;2023-07-31T05:45:56;14.03;;;6.53;;
81821;SDS011;71257;52.192;5.654;2023-07-31T05:48:21;11.50;;;4.60;;
81821;SDS011;71257;52.192;5.654;2023-07-31T05:50:47;8.80;;;4.30;;
81821;SDS011;71257;52.192;5.654;2023-07-31T05:53:12;11.55;;;4.57;;
81821;SDS011;71257;52.192;5.654;2023-07-31T05:55:38;8.73;;;4.47;;
81821;SDS011;71257;52.192;5.654;2023-07-31T05:58:03;8.23;;;3.70;;
81821;SDS011;71257;52.192;5.654;2023-07-31T06:00:28;14.55;;;4.05;;
81821;SDS011;71257;52.192;5.654;2023-07-31T06:02:54;8.73;;;3.50;;
81821;SDS011;71257;52.192;5.654;2023-07-31T06:05:19;9.80;;;3.70;;
81821;SDS011;71257;52.192;5.654;2023-07-31T06:07:45;8.95;;;4.93;;
81821;SDS011;71257;52.192;5.654;2023-07-31T06:10:10;8.90;;;4.18;;
81821;SDS011;71257;52.192;5.654;2023-07-31T06:12:36;10.30;;;4.43;;
81821;SDS011;71257;52.192;5.654;2023-07-31T06:15:02;7.73;;;3.70;;
81821;SDS011;71257;52.192;5.654;2023-07-31T06:17:28;8.10;;;3.90;;
81821;SDS011;71257;52.192;5.654;2023-07-31T06:19:54;9.93;;;4.30;;
81821;SDS011;71257;52.192;5.654;2023-07-31T06:22:19;9.65;;;4.63;;
81821;SDS011;71257;52.192;5.654;2023-07-31T06:25:03;8.48;;;4.93;;
81821;SDS011;71257;52.192;5.654;2023-07-31T06:27:29;8.05;;;4.28;;
81821;SDS011;71257;52.192;5.654;2023-07-31T06:29:54;8.98;;;4.68;;
81821;SDS011;71257;52.192;5.654;2023-07-31T06:32:20;9.10;;;4.70;;
81821;SDS011;71257;52.192;5.654;2023-07-31T06:34:45;10.18;;;5.38;;
81821;SDS011;71257;52.192;5.654;2023-07-31T06:37:10;9.75;;;5.05;;
81821;SDS011;71257;52.192;5.654;2023-07-31T06:39:36;11.00;;;5.20;;
81821;SDS011;71257;52.192;5.654;2023-07-31T06:42:02;10.73;;;4.63;;
81821;SDS011;71257;52.192;5.654;2023-07-31T06:44:28;10.57;;;4.93;;
81821;SDS011;71257;52.192;5.654;2023-07-31T06:46:53;6.03;;;3.55;;
81821;SDS011;71257;52.192;5.654;2023-07-31T06:49:18;7.87;;;4.20;;
81821;SDS011;71257;52.192;5.654;2023-07-31T06:51:44;5.60;;;3.67;;
81821;SDS011;71257;52.192;5.654;2023-07-31T06:54:09;7.45;;;4.38;;
81821;SDS011;71257;52.192;5.654;2023-07-31T06:56:35;9.40;;;4.07;;
81821;SDS011;71257;52.192;5.654;2023-07-31T06:59:00;8.25;;;4.03;;
81821;SDS011;71257;52.192;5.654;2023-07-31T07:01:26;9.40;;;4.05;;
81821;SDS011;71257;52.192;5.654;2023-07-31T07:03:52;6.72;;;3.25;;
81821;SDS011;71257;52.192;5.654;2023-07-31T07:06:18;10.05;;;4.03;;
81821;SDS011;71257;52.192;5.654;2023-07-31T07:08:43;6.75;;;3.55;;
81821;SDS011;71257;52.192;5.654;2023-07-31T07:11:09;6.33;;;3.20;;
81821;SDS011;71257;52.192;5.654;2023-07-31T07:13:34;7.10;;;3.75;;
81821;SDS011;71257;52.192;5.654;2023-07-31T07:16:00;6.65;;;3.60;;
81821;SDS011;71257;52.192;5.654;2023-07-31T07:18:25;5.82;;;3.70;;
81821;SDS011;71257;52.192;5.654;2023-07-31T07:20:51;4.70;;;2.92;;
81821;SDS011;71257;52.192;5.654;2023-07-31T07:23:17;6.50;;;3.33;;
81821;SDS011;71257;52.192;5.654;2023-07-31T07:25:44;7.50;;;3.75;;
81821;SDS011;71257;52.192;5.654;2023-07-31T07:28:11;6.10;;;3.60;;
81821;SDS011;71257;52.192;5.654;2023-07-31T07:30:37;5.60;;;3.58;;
81821;SDS011;71257;52.192;5.654;2023-07-31T07:33:03;6.20;;;3.17;;
81821;SDS011;71257;52.192;5.654;2023-07-31T07:35:28;6.05;;;3.90;;
81821;SDS011;71257;52.192;5.654;2023-07-31T07:37:53;7.45;;;3.45;;
81821;SDS011;71257;52.192;5.654;2023-07-31T07:40:20;5.03;;;3.38;;
81821;SDS011;71257;52.192;5.654;2023-07-31T07:42:45;6.75;;;3.38;;
81821;SDS011;71257;52.192;5.654;2023-07-31T07:45:11;5.40;;;3.03;;
81821;SDS011;71257;52.192;5.654;2023-07-31T07:47:38;6.20;;;2.97;;
81821;SDS011;71257;52.192;5.654;2023-07-31T07:52:31;4.05;;;3.28;;
81821;SDS011;71257;52.192;5.654;2023-07-31T07:54:56;6.60;;;3.50;;
81821;SDS011;71257;52.192;5.654;2023-07-31T07:57:22;5.47;;;3.55;;
81821;SDS011;71257;52.192;5.654;2023-07-31T07:59:47;6.77;;;3.90;;
81821;SDS011;71257;52.192;5.654;2023-07-31T08:02:12;7.25;;;3.85;;
81821;SDS011;71257;52.192;5.654;2023-07-31T08:04:38;7.10;;;3.50;;
81821;SDS011;71257;52.192;5.654;2023-07-31T08:07:03;6.65;;;3.78;;
81821;SDS011;71257;52.192;5.654;2023-07-31T08:09:32;5.30;;;3.00;;
81821;SDS011;71257;52.192;5.654;2023-07-31T08:11:57;6.13;;;3.97;;
81821;SDS011;71257;52.192;5.654;2023-07-31T08:14:27;4.32;;;2.60;;
81821;SDS011;71257;52.192;5.654;2023-07-31T08:16:52;5.45;;;3.97;;
81821;SDS011;71257;52.192;5.654;2023-07-31T08:19:18;4.82;;;3.40;;
81821;SDS011;71257;52.192;5.654;2023-07-31T08:21:43;5.60;;;3.20;;
81821;SDS011;71257;52.192;5.654;2023-07-31T08:24:08;5.10;;;3.53;;
81821;SDS011;71257;52.192;5.654;2023-07-31T08:26:34;5.60;;;3.37;;
81821;SDS011;71257;52.192;5.654;2023-07-31T08:28:59;4.90;;;3.50;;
81821;SDS011;71257;52.192;5.654;2023-07-31T08:31:24;6.87;;;3.60;;
81821;SDS011;71257;52.192;5.654;2023-07-31T08:33:50;5.78;;;3.80;;
81821;SDS011;71257;52.192;5.654;2023-07-31T08:36:15;8.10;;;3.78;;
81821;SDS011;71257;52.192;5.654;2023-07-31T08:38:41;5.97;;;4.10;;
81821;SDS011;71257;52.192;5.654;2023-07-31T08:41:06;6.78;;;4.43;;
81821;SDS011;71257;52.192;5.654;2023-07-31T08:43:32;5.85;;;3.90;;
81821;SDS011;71257;52.192;5.654;2023-07-31T08:45:57;5.45;;;3.20;;
81821;SDS011;71257;52.192;5.654;2023-07-31T08:48:24;5.88;;;3.72;;
81821;SDS011;71257;52.192;5.654;2023-07-31T08:50:52;6.32;;;3.97;;
81821;SDS011;71257;52.192;5.654;2023-07-31T08:53:18;10.23;;;3.85;;
81821;SDS011;71257;52.192;5.654;2023-07-31T08:55:44;4.00;;;2.92;;
81821;SDS011;71257;52.192;5.654;2023-07-31T08:58:10;4.70;;;3.15;;
81821;SDS011;71257;52.192;5.654;2023-07-31T09:00:38;5.13;;;3.30;;
81821;SDS011;71257;52.192;5.654;2023-07-31T09:03:08;3.90;;;3.25;;
81821;SDS011;71257;52.192;5.654;2023-07-31T09:05:35;5.47;;;3.70;;
81821;SDS011;71257;52.192;5.654;2023-07-31T09:08:04;3.67;;;2.78;;
81821;SDS011;71257;52.192;5.654;2023-07-31T09:10:30;5.85;;;3.15;;
81821;SDS011;71257;52.192;5.654;2023-07-31T09:12:56;3.35;;;2.47;;
81821;SDS011;71257;52.192;5.654;2023-07-31T09:15:23;4.38;;;3.25;;
81821;SDS011;71257;52.192;5.654;2023-07-31T09:17:49;4.70;;;3.33;;
81821;SDS011;71257;52.192;5.654;2023-07-31T09:20:24;4.32;;;3.10;;
81821;SDS011;71257;52.192;5.654;2023-07-31T09:22:50;7.25;;;3.67;;
81821;SDS011;71257;52.192;5.654;2023-07-31T09:25:17;7.83;;;4.10;;
81821;SDS011;71257;52.192;5.654;2023-07-31T09:27:46;5.38;;;3.78;;
81821;SDS011;71257;52.192;5.654;2023-07-31T09:30:12;4.93;;;3.63;;
81821;SDS011;71257;52.192;5.654;2023-07-31T09:32:38;5.22;;;3.30;;
81821;SDS011;71257;52.192;5.654;2023-07-31T09:35:27;4.63;;;3.58;;
81821;SDS011;71257;52.192;5.654;2023-07-31T09:37:55;5.20;;;3.17;;
81821;SDS011;71257;52.192;5.654;2023-07-31T09:40:25;6.47;;;3.72;;
81821;SDS011;71257;52.192;5.654;2023-07-31T09:43:02;4.60;;;3.22;;
81821;SDS011;71257;52.192;5.654;2023-07-31T09:45:30;5.05;;;3.25;;
81821;SDS011;71257;52.192;5.654;2023-07-31T09:47:59;4.47;;;2.78;;
81821;SDS011;71257;52.192;5.654;2023-07-31T09:50:24;5.73;;;3.47;;
81821;SDS011;71257;52.192;5.654;2023-07-31T09:52:50;5.05;;;3.05;;
81821;SDS011;71257;52.192;5.654;2023-07-31T09:55:17;4.78;;;3.50;;
81821;SDS011;71257;52.192;5.654;2023-07-31T09:57:45;7.25;;;3.45;;
81821;SDS011;71257;52.192;5.654;2023-07-31T10:00:13;6.40;;;3.60;;
81821;SDS011;71257;52.192;5.654;2023-07-31T10:02:40;4.28;;;3.05;;
81821;SDS011;71257;52.192;5.654;2023-07-31T10:05:06;5.55;;;3.58;;
81821;SDS011;71257;52.192;5.654;2023-07-31T10:07:36;4.10;;;2.75;;
81821;SDS011;71257;52.192;5.654;2023-07-31T10:10:04;5.68;;;3.55;;
81821;SDS011;71257;52.192;5.654;2023-07-31T10:12:32;4.63;;;3.50;;
81821;SDS011;71257;52.192;5.654;2023-07-31T10:14:59;4.13;;;3.13;;
81821;SDS011;71257;52.192;5.654;2023-07-31T10:17:26;6.38;;;3.42;;
81821;SDS011;71257;52.192;5.654;2023-07-31T10:19:51;6.10;;;3.25;;
81821;SDS011;71257;52.192;5.654;2023-07-31T10:22:19;6.50;;;3.20;;
81821;SDS011;71257;52.192;5.654;2023-07-31T10:24:46;4.40;;;2.80;;
81821;SDS011;71257;52.192;5.654;2023-07-31T10:27:12;4.20;;;2.90;;
81821;SDS011;71257;52.192;5.654;2023-07-31T10:29:38;4.63;;;2.75;;
81821;SDS011;71257;52.192;5.654;2023-07-31T10:32:05;4.78;;;3.08;;
81821;SDS011;71257;52.192;5.654;2023-07-31T10:34:35;5.88;;;4.32;;
81821;SDS011;71257;52.192;5.654;2023-07-31T10:38:16;5.00;;;3.58;;
81821;SDS011;71257;52.192;5.654;2023-07-31T10:42:32;7.60;;;4.20;;
81821;SDS011;71257;52.192;5.654;2023-07-31T10:45:01;7.85;;;4.05;;
81821;SDS011;71257;52.192;5.654;2023-07-31T10:47:36;6.25;;;3.50;;
81821;SDS011;71257;52.192;5.654;2023-07-31T10:52:54;8.00;;;4.43;;
81821;SDS011;71257;52.192;5.654;2023-07-31T10:58:12;6.53;;;3.80;;
81821;SDS011;71257;52.192;5.654;2023-07-31T11:00:39;6.47;;;4.65;;
81821;SDS011;71257;52.192;5.654;2023-07-31T11:03:08;9.18;;;5.03;;
81821;SDS011;71257;52.192;5.654;2023-07-31T11:13:41;7.38;;;5.15;;
81821;SDS011;71257;52.192;5.654;2023-07-31T11:16:09;7.57;;;4.43;;
81821;SDS011;71257;52.192;5.654;2023-07-31T11:18:38;7.70;;;4.38;;
81821;SDS011;71257;52.192;5.654;2023-07-31T11:21:04;6.78;;;4.53;;
81821;SDS011;71257;52.192;5.654;2023-07-31T11:23:30;6.07;;;3.90;;
81821;SDS011;71257;52.192;5.654;2023-07-31T11:25:59;6.95;;;4.07;;
81821;SDS011;71257;52.192;5.654;2023-07-31T11:28:25;6.47;;;4.40;;
81821;SDS011;71257;52.192;5.654;2023-07-31T11:30:50;6.68;;;3.97;;
81821;SDS011;71257;52.192;5.654;2023-07-31T11:33:16;6.85;;;4.05;;
81821;SDS011;71257;52.192;5.654;2023-07-31T11:35:43;5.93;;;3.63;;
81821;SDS011;71257;52.192;5.654;2023-07-31T11:38:12;5.30;;;3.22;;
81821;SDS011;71257;52.192;5.654;2023-07-31T11:40:46;6.88;;;3.75;;
81821;SDS011;71257;52.192;5.654;2023-07-31T11:43:11;4.90;;;3.13;;
81821;SDS011;71257;52.192;5.654;2023-07-31T11:45:41;4.38;;;3.13;;
81821;SDS011;71257;52.192;5.654;2023-07-31T11:48:06;4.43;;;3.20;;
81821;SDS011;71257;52.192;5.654;2023-07-31T11:50:33;5.38;;;3.22;;
81821;SDS011;71257;52.192;5.654;2023-07-31T11:53:00;4.57;;;3.03;;
81821;SDS011;71257;52.192;5.654;2023-07-31T11:55:32;7.18;;;4.18;;
81821;SDS011;71257;52.192;5.654;2023-07-31T11:57:58;5.30;;;3.22;;
81821;SDS011;71257;52.192;5.654;2023-07-31T12:00:24;4.05;;;2.60;;
81821;SDS011;71257;52.192;5.654;2023-07-31T12:02:51;3.95;;;2.50;;
81821;SDS011;71257;52.192;5.654;2023-07-31T12:05:17;6.65;;;2.88;;
81821;SDS011;71257;52.192;5.654;2023-07-31T12:07:43;5.28;;;2.90;;
81821;SDS011;71257;52.192;5.654;2023-07-31T12:10:09;6.28;;;3.40;;
81821;SDS011;71257;52.192;5.654;2023-07-31T12:12:35;6.35;;;3.92;;
81821;SDS011;71257;52.192;5.654;2023-07-31T12:15:00;6.82;;;3.90;;
81821;SDS011;71257;52.192;5.654;2023-07-31T12:17:25;6.10;;;3.87;;
81821;SDS011;71257;52.192;5.654;2023-07-31T12:19:51;6.25;;;3.40;;
81821;SDS011;71257;52.192;5.654;2023-07-31T12:22:16;8.07;;;4.10;;
81821;SDS011;71257;52.192;5.654;2023-07-31T12:24:42;5.70;;;3.60;;
81821;SDS011;71257;52.192;5.654;2023-07-31T12:29:47;9.48;;;4.97;;
81821;SDS011;71257;52.192;5.654;2023-07-31T12:32:29;7.65;;;5.22;;
81821;SDS011;71257;52.192;5.654;2023-07-31T12:34:58;8.45;;;4.38;;
81821;SDS011;71257;52.192;5.654;2023-07-31T12:37:24;6.38;;;3.83;;
81821;SDS011;71257;52.192;5.654;2023-07-31T12:39:50;5.57;;;4.00;;
81821;SDS011;71257;52.192;5.654;2023-07-31T12:42:17;6.60;;;4.63;;
81821;SDS011;71257;52.192;5.654;2023-07-31T12:44:42;6.43;;;4.35;;
81821;SDS011;71257;52.192;5.654;2023-07-31T12:47:08;5.57;;;3.93;;
81821;SDS011;71257;52.192;5.654;2023-07-31T12:49:33;4.20;;;3.15;;
81821;SDS011;71257;52.192;5.654;2023-07-31T12:51:59;4.35;;;3.05;;
81821;SDS011;71257;52.192;5.654;2023-07-31T12:54:24;3.80;;;2.90;;
81821;SDS011;71257;52.192;5.654;2023-07-31T12:56:49;4.53;;;3.10;;
81821;SDS011;71257;52.192;5.654;2023-07-31T12:59:14;6.07;;;3.80;;
81821;SDS011;71257;52.192;5.654;2023-07-31T13:01:40;5.18;;;3.00;;
81821;SDS011;71257;52.192;5.654;2023-07-31T13:04:05;4.33;;;3.17;;
81821;SDS011;71257;52.192;5.654;2023-07-31T13:06:33;4.93;;;3.42;;
81821;SDS011;71257;52.192;5.654;2023-07-31T13:08:58;5.40;;;3.58;;
81821;SDS011;71257;52.192;5.654;2023-07-31T13:11:24;5.60;;;3.53;;
81821;SDS011;71257;52.192;5.654;2023-07-31T13:13:49;7.13;;;3.90;;
81821;SDS011;71257;52.192;5.654;2023-07-31T13:16:14;7.77;;;5.20;;
81821;SDS011;71257;52.192;5.654;2023-07-31T13:18:40;5.97;;;4.00;;
81821;SDS011;71257;52.192;5.654;2023-07-31T13:21:05;5.73;;;4.27;;
81821;SDS011;71257;52.192;5.654;2023-07-31T13:23:30;5.00;;;3.90;;
81821;SDS011;71257;52.192;5.654;2023-07-31T13:25:56;6.32;;;4.13;;
81821;SDS011;71257;52.192;5.654;2023-07-31T13:28:21;5.80;;;4.00;;
81821;SDS011;71257;52.192;5.654;2023-07-31T13:30:47;7.03;;;4.70;;
81821;SDS011;71257;52.192;5.654;2023-07-31T13:33:12;6.50;;;4.60;;
81821;SDS011;71257;52.192;5.654;2023-07-31T13:35:37;5.50;;;3.97;;
81821;SDS011;71257;52.192;5.654;2023-07-31T13:38:03;7.97;;;5.00;;
81821;SDS011;71257;52.192;5.654;2023-07-31T13:40:28;7.93;;;5.35;;
81821;SDS011;71257;52.192;5.654;2023-07-31T13:42:53;8.67;;;4.80;;
81821;SDS011;71257;52.192;5.654;2023-07-31T13:45:20;8.80;;;4.80;;
81821;SDS011;71257;52.192;5.654;2023-07-31T13:47:46;8.20;;;5.32;;
81821;SDS011;71257;52.192;5.654;2023-07-31T13:50:11;6.33;;;4.97;;
81821;SDS011;71257;52.192;5.654;2023-07-31T13:52:36;8.65;;;5.20;;
81821;SDS011;71257;52.192;5.654;2023-07-31T13:55:02;8.77;;;5.53;;
81821;SDS011;71257;52.192;5.654;2023-07-31T13:57:27;8.60;;;5.45;;
81821;SDS011;71257;52.192;5.654;2023-07-31T13:59:53;7.78;;;4.97;;
81821;SDS011;71257;52.192;5.654;2023-07-31T14:02:18;7.17;;;5.27;;
81821;SDS011;71257;52.192;5.654;2023-07-31T14:04:44;7.13;;;4.95;;
81821;SDS011;71257;52.192;5.654;2023-07-31T14:07:28;10.50;;;5.18;;
81821;SDS011;71257;52.192;5.654;2023-07-31T14:09:53;9.38;;;4.60;;
81821;SDS011;71257;52.192;5.654;2023-07-31T14:12:18;6.63;;;4.33;;
81821;SDS011;71257;52.192;5.654;2023-07-31T14:14:44;7.07;;;4.40;;
81821;SDS011;71257;52.192;5.654;2023-07-31T14:17:09;8.47;;;4.90;;
81821;SDS011;71257;52.192;5.654;2023-07-31T14:19:35;8.05;;;5.25;;
81821;SDS011;71257;52.192;5.654;2023-07-31T14:22:00;7.88;;;5.07;;
81821;SDS011;71257;52.192;5.654;2023-07-31T14:24:25;8.07;;;5.10;;
81821;SDS011;71257;52.192;5.654;2023-07-31T14:26:51;7.07;;;4.75;;
81821;SDS011;71257;52.192;5.654;2023-07-31T14:29:16;7.32;;;4.65;;
81821;SDS011;71257;52.192;5.654;2023-07-31T14:31:41;7.18;;;4.80;;
81821;SDS011;71257;52.192;5.654;2023-07-31T14:34:07;7.53;;;4.43;;
81821;SDS011;71257;52.192;5.654;2023-07-31T14:36:32;8.20;;;5.63;;
81821;SDS011;71257;52.192;5.654;2023-07-31T14:38:57;9.23;;;6.38;;
81821;SDS011;71257;52.192;5.654;2023-07-31T14:41:23;10.93;;;5.93;;
81821;SDS011;71257;52.192;5.654;2023-07-31T14:43:48;10.93;;;6.27;;
81821;SDS011;71257;52.192;5.654;2023-07-31T14:46:13;10.80;;;6.60;;
81821;SDS011;71257;52.192;5.654;2023-07-31T14:48:39;9.73;;;6.55;;
81821;SDS011;71257;52.192;5.654;2023-07-31T14:51:05;11.15;;;6.68;;
81821;SDS011;71257;52.192;5.654;2023-07-31T14:53:30;11.55;;;6.85;;
81821;SDS011;71257;52.192;5.654;2023-07-31T14:55:55;10.03;;;5.60;;
81821;SDS011;71257;52.192;5.654;2023-07-31T14:58:21;9.73;;;5.78;;
81821;SDS011;71257;52.192;5.654;2023-07-31T15:00:47;9.82;;;6.03;;
81821;SDS011;71257;52.192;5.654;2023-07-31T15:03:13;11.00;;;6.38;;